Time;durP1;ratioP1;P1;durP2;ratioP2;P2;SDS_P1;SDS_P2;PMS_P1;PMS_P2;Temp;Humidity;BMP_temperature;BMP_pressure;BME280_temperature;BME280_humidity;BME280_pressure;Samples;Min_cycle;Max_cycle;Signal;HPM_P1;HPM_P2
2021/11/14 00:01:39;;;;;;;7.88;3.38;;;11.60;99.90;;;;;;5069787;28;20040;-85
2021/11/14 00:04:09;;;;;;;4.95;2.40;;;11.60;99.90;;;;;;5036202;28;20044;-87
2021/11/14 00:06:38;;;;;;;7.15;3.22;;;11.60;99.90;;;;;;5069854;28;20512;-88
2021/11/14 00:09:06;;;;;;;4.22;1.73;;;11.60;99.90;;;;;;5038061;28;20063;-85
2021/11/14 00:11:34;;;;;;;6.45;2.25;;;11.60;99.90;;;;;;5071102;28;20056;-85
2021/11/14 00:14:02;;;;;;;8.23;2.63;;;11.60;99.90;;;;;;5048413;28;20052;-88
2021/11/14 00:16:30;;;;;;;10.63;2.85;;;11.60;99.90;;;;;;5067313;28;20057;-86
2021/11/14 00:18:58;;;;;;;7.68;2.85;;;11.60;99.90;;;;;;5030332;28;20049;-85
2021/11/14 00:21:29;;;;;;;3.40;2.38;;;11.60;99.90;;;;;;5052559;28;20415;-85
2021/11/14 00:23:58;;;;;;;6.97;3.75;;;11.60;99.90;;;;;;5044347;28;20064;-85
2021/11/14 00:26:26;;;;;;;7.97;2.58;;;11.60;99.90;;;;;;5055897;28;20045;-85
2021/11/14 00:28:54;;;;;;;6.93;2.00;;;11.60;99.90;;;;;;5035809;28;20044;-85
2021/11/14 00:31:22;;;;;;;9.95;2.47;;;11.60;99.90;;;;;;5036215;28;20568;-84
2021/11/14 00:33:51;;;;;;;4.10;2.10;;;11.60;99.90;;;;;;5050922;28;20062;-85
2021/11/14 00:36:24;;;;;;;4.88;2.47;;;11.60;99.90;;;;;;5031859;28;20097;-86
2021/11/14 00:38:52;;;;;;;5.55;2.40;;;11.60;99.90;;;;;;5039468;28;20044;-85
2021/11/14 00:41:23;;;;;;;3.42;2.50;;;11.70;99.90;;;;;;5035351;28;20412;-86
2021/11/14 00:43:53;;;;;;;6.78;2.45;;;11.70;99.90;;;;;;5072467;28;20231;-86
2021/11/14 00:46:20;;;;;;;9.48;2.33;;;11.70;99.90;;;;;;5043622;28;20041;-85
2021/11/14 00:48:48;;;;;;;7.53;2.50;;;11.60;99.90;;;;;;5033524;28;20044;-86
2021/11/14 00:51:19;;;;;;;8.90;2.22;;;12.60;99.90;;;;;;5041351;28;20052;-84
2021/11/14 00:53:47;;;;;;;6.03;2.58;;;11.20;99.90;;;;;;5032123;28;20049;-84
2021/11/14 00:56:15;;;;;;;7.75;2.22;;;11.60;99.90;;;;;;5068215;28;20040;-86
2021/11/14 00:58:51;;;;;;;5.50;2.03;;;11.60;99.90;;;;;;5042089;28;20145;-84
2021/11/14 01:01:20;;;;;;;8.25;2.17;;;11.60;99.90;;;;;;5031018;28;20071;-85
2021/11/14 01:03:48;;;;;;;4.10;2.00;;;11.60;99.90;;;;;;5049932;28;20048;-87
2021/11/14 01:06:16;;;;;;;7.88;2.67;;;11.60;99.90;;;;;;5036509;28;20412;-86
2021/11/14 01:08:44;;;;;;;8.43;2.83;;;11.60;99.90;;;;;;5038331;28;20407;-85
2021/11/14 01:11:14;;;;;;;4.50;2.47;;;11.60;99.90;;;;;;5038160;28;20055;-85
2021/11/14 01:13:42;;;;;;;10.27;2.88;;;11.60;99.90;;;;;;5039742;28;20052;-85
2021/11/14 01:16:14;;;;;;;10.25;3.20;;;11.60;99.90;;;;;;5023358;28;20047;-85
2021/11/14 01:18:42;;;;;;;;;;;11.60;99.90;;;;;;5035715;28;20063;-86
2021/11/14 01:21:13;;;;;;;4.60;2.38;;;11.50;99.90;;;;;;5043680;28;19920;-85
2021/11/14 01:23:42;;;;;;;7.45;2.80;;;10.80;99.90;;;;;;5039922;28;20053;-83
2021/11/14 01:26:10;;;;;;;7.82;3.90;;;11.50;99.90;;;;;;5039892;28;20392;-85
2021/11/14 01:28:38;;;;;;;7.43;3.35;;;11.50;99.90;;;;;;5041149;28;20056;-85
2021/11/14 01:31:07;;;;;;;9.40;3.58;;;11.50;99.90;;;;;;5056109;28;20416;-85
2021/11/14 01:33:35;;;;;;;9.52;3.40;;;11.60;99.90;;;;;;5054862;28;20059;-85
2021/11/14 01:36:04;;;;;;;7.85;3.28;;;11.60;99.90;;;;;;5055193;28;20052;-86
2021/11/14 01:38:32;;;;;;;7.82;3.90;;;11.50;99.90;;;;;;5040195;28;20060;-86
2021/11/14 01:41:08;;;;;;;7.15;3.25;;;11.50;99.90;;;;;;5043440;28;20048;-86
2021/11/14 01:43:43;;;;;;;6.72;2.40;;;11.50;99.90;;;;;;5069936;28;20047;-84
2021/11/14 01:46:12;;;;;;;7.63;3.53;;;12.00;99.90;;;;;;5040174;28;20387;-86
2021/11/14 01:48:40;;;;;;;8.90;3.08;;;11.50;99.90;;;;;;5045245;28;20052;-86
2021/11/14 01:51:10;;;;;;;10.65;2.80;;;11.50;99.90;;;;;;5041645;28;20049;-86
2021/11/14 01:53:39;;;;;;;4.63;2.40;;;11.50;99.90;;;;;;5020949;28;20044;-86
2021/11/14 01:56:11;;;;;;;4.65;2.20;;;11.50;99.90;;;;;;5040593;28;20049;-85
2021/11/14 01:58:40;;;;;;;9.05;3.42;;;11.50;99.90;;;;;;5044262;28;20082;-85
2021/11/14 02:01:16;;;;;;;3.20;2.40;;;11.50;99.90;;;;;;5057343;28;20036;-85
2021/11/14 02:03:53;;;;;;;11.52;3.03;;;11.50;99.90;;;;;;5063974;28;20053;-86
2021/11/14 02:06:24;;;;;;;10.10;3.75;;;11.50;99.90;;;;;;5021707;28;20076;-85
2021/11/14 02:08:53;;;;;;;7.47;2.72;;;11.50;99.90;;;;;;5052767;28;20052;-85
2021/11/14 02:11:23;;;;;;;7.75;2.97;;;11.50;99.90;;;;;;5060061;28;20055;-86
2021/11/14 02:13:51;;;;;;;6.97;3.95;;;11.50;99.90;;;;;;5044349;28;20241;-88
2021/11/14 02:16:24;;;;;;;4.68;2.60;;;11.50;99.90;;;;;;5058798;28;20191;-85
2021/11/14 02:18:52;;;;;;;10.63;2.85;;;11.50;99.90;;;;;;5061489;28;20373;-86
2021/11/14 02:21:23;;;;;;;6.53;2.22;;;11.50;99.90;;;;;;5082365;28;20040;-86
2021/11/14 02:23:51;;;;;;;9.55;2.17;;;11.50;99.90;;;;;;5064760;28;20052;-86
2021/11/14 02:26:23;;;;;;;10.07;4.07;;;11.50;99.90;;;;;;5026972;28;20052;-86
2021/11/14 02:28:52;;;;;;;10.52;3.53;;;11.50;99.90;;;;;;5028195;28;20057;-86
2021/11/14 02:31:22;;;;;;;9.85;2.78;;;11.40;99.90;;;;;;5071455;28;20044;-86
2021/11/14 02:33:51;;;;;;;11.48;3.28;;;11.40;99.90;;;;;;5031154;28;20067;-86
2021/11/14 02:36:20;;;;;;;10.75;3.13;;;11.50;99.90;;;;;;5042270;28;20581;-87
2021/11/14 02:38:49;;;;;;;3.47;2.47;;;11.40;99.90;;;;;;5040738;28;20048;-86
2021/11/14 02:41:17;;;;;;;9.48;3.67;;;11.40;99.90;;;;;;5038597;28;20063;-85
2021/11/14 02:43:47;;;;;;;6.28;2.58;;;11.50;99.90;;;;;;5022427;28;20049;-87
2021/11/14 02:46:15;;;;;;;4.68;2.35;;;11.40;99.90;;;;;;5071632;28;20063;-86
2021/11/14 02:48:44;;;;;;;12.98;4.20;;;11.40;99.90;;;;;;5041470;28;20420;-85
2021/11/14 02:51:17;;;;;;;8.30;2.22;;;11.40;99.90;;;;;;5082821;28;20040;-85
2021/11/14 02:53:46;;;;;;;5.88;2.40;;;11.40;99.90;;;;;;5063937;28;20491;-86
2021/11/14 02:56:13;;;;;;;10.60;3.35;;;11.40;99.90;;;;;;5063874;28;20049;-86
2021/11/14 02:58:42;;;;;;;6.90;3.40;;;11.40;99.90;;;;;;5060917;28;20041;-86
2021/11/14 03:01:33;;;;;;;11.25;3.80;;;11.40;99.90;;;;;;5052303;28;20049;-85
2021/11/14 03:04:03;;;;;;;19.13;3.85;;;11.40;99.90;;;;;;5050408;28;20049;-86
2021/11/14 03:06:31;;;;;;;5.45;2.42;;;11.40;99.90;;;;;;5044574;28;20396;-86
2021/11/14 03:08:59;;;;;;;9.05;2.60;;;11.40;99.90;;;;;;5059679;28;20045;-86
2021/11/14 03:11:27;;;;;;;15.93;3.40;;;11.50;99.90;;;;;;5042064;28;20399;-85
2021/11/14 03:14:13;;;;;;;11.50;4.13;;;11.40;99.90;;;;;;5061517;28;20128;-85
2021/11/14 03:16:42;;;;;;;11.43;3.08;;;11.50;99.90;;;;;;5070968;28;20059;-85
2021/11/14 03:19:13;;;;;;;12.57;3.42;;;11.50;99.90;;;;;;5025410;28;20056;-85
2021/11/14 03:21:41;;;;;;;13.18;3.00;;;11.50;99.90;;;;;;5047632;28;20036;-85
2021/11/14 03:24:09;;;;;;;13.45;3.72;;;11.40;99.90;;;;;;5063009;28;20041;-85
2021/11/14 03:26:38;;;;;;;10.90;4.78;;;11.40;99.90;;;;;;5068361;28;20036;-86
2021/11/14 03:29:06;;;;;;;10.68;2.70;;;11.40;99.90;;;;;;5050897;28;20063;-87
2021/11/14 03:31:35;;;;;;;12.15;3.38;;;11.40;99.90;;;;;;5067278;28;20577;-85
2021/11/14 03:34:03;;;;;;;11.65;3.83;;;11.40;99.90;;;;;;5046511;28;20054;-87
2021/11/14 03:36:31;;;;;;;8.43;3.45;;;11.40;99.90;;;;;;5048940;28;20049;-87
2021/11/14 03:39:02;;;;;;;10.88;4.30;;;11.30;99.90;;;;;;5064451;28;20055;-87
2021/11/14 03:41:37;;;;;;;13.98;6.60;;;11.30;99.90;;;;;;5060262;28;20052;-86
2021/11/14 03:44:07;;;;;;;11.93;3.60;;;11.30;99.90;;;;;;5025549;28;20045;-87
2021/11/14 03:46:35;;;;;;;11.43;3.35;;;11.20;99.90;;;;;;5027926;28;20052;-87
2021/11/14 03:49:05;;;;;;;20.02;5.00;;;11.10;99.90;;;;;;5065844;28;20051;-87
2021/11/14 03:51:34;;;;;;;12.27;4.45;;;11.10;99.90;;;;;;5046440;28;20063;-87
2021/11/14 03:54:02;;;;;;;21.30;4.78;;;11.00;99.90;;;;;;5064255;28;20475;-86
2021/11/14 03:56:32;;;;;;;18.45;5.97;;;11.10;99.90;;;;;;5064907;28;20044;-86
2021/11/14 03:59:02;;;;;;;17.42;4.78;;;11.00;99.90;;;;;;5035284;28;20049;-86
2021/11/14 04:01:31;;;;;;;16.58;5.13;;;11.00;99.90;;;;;;5023189;28;20044;-86
2021/11/14 04:04:00;;;;;;;10.15;4.75;;;11.00;99.90;;;;;;5019055;28;20065;-87
2021/11/14 04:06:28;;;;;;;11.65;6.00;;;11.10;99.90;;;;;;5051574;28;20059;-86
2021/11/14 04:08:58;;;;;;;10.85;4.28;;;11.00;99.90;;;;;;5043780;28;20464;-87
2021/11/14 04:11:26;;;;;;;13.07;4.73;;;11.00;99.90;;;;;;4715407;28;9999892;-89
2021/11/14 04:13:55;;;;;;;15.27;4.53;;;11.00;99.90;;;;;;5051470;28;20049;-89
2021/11/14 04:16:23;;;;;;;17.83;5.80;;;11.00;99.90;;;;;;5077491;28;20282;-88
2021/11/14 04:18:51;;;;;;;16.42;5.38;;;11.00;99.90;;;;;;5028127;28;20045;-88
2021/11/14 04:21:19;;;;;;;13.15;4.90;;;11.00;99.90;;;;;;5028604;28;20484;-87
2021/11/14 04:23:46;;;;;;;16.10;5.07;;;11.00;99.90;;;;;;5010986;28;20045;-87
2021/11/14 04:26:14;;;;;;;11.65;5.88;;;11.00;99.90;;;;;;5046771;28;20053;-87
2021/11/14 04:28:42;;;;;;;33.42;5.40;;;11.00;99.90;;;;;;5069816;28;20197;-87
2021/11/14 04:31:10;;;;;;;16.83;6.65;;;11.00;99.90;;;;;;5043240;28;20060;-87
2021/11/14 04:33:38;;;;;;;15.93;5.93;;;11.00;99.90;;;;;;5037375;28;20049;-87
2021/11/14 04:36:06;;;;;;;17.40;7.43;;;11.00;99.90;;;;;;5043413;28;20480;-86
2021/11/14 04:38:36;;;;;;;16.27;5.80;;;11.00;99.90;;;;;;5043192;28;20049;-88
2021/11/14 04:41:03;;;;;;;14.52;5.22;;;11.00;99.90;;;;;;5026101;28;20052;-86
2021/11/14 04:43:31;;;;;;;17.50;6.30;;;11.00;99.90;;;;;;5045857;28;20075;-88
2021/11/14 04:45:59;;;;;;;16.80;7.47;;;11.00;99.90;;;;;;5044046;28;20040;-86
2021/11/14 04:48:27;;;;;;;10.80;5.53;;;11.00;99.90;;;;;;5040899;28;20511;-87
2021/11/14 04:50:55;;;;;;;18.92;7.57;;;11.00;99.90;;;;;;5063090;28;20063;-86
2021/11/14 04:53:22;;;;;;;17.95;7.72;;;10.90;99.90;;;;;;5044141;28;20490;-86
2021/11/14 04:55:50;;;;;;;15.45;6.15;;;10.90;99.90;;;;;;5042593;28;20064;-85
2021/11/14 04:58:18;;;;;;;13.27;7.05;;;11.00;99.90;;;;;;5042138;28;20041;-86
2021/11/14 05:00:50;;;;;;;20.00;6.85;;;10.90;99.90;;;;;;5056309;28;20507;-89
2021/11/14 05:03:20;;;;;;;17.25;7.35;;;11.00;99.90;;;;;;5049253;28;20044;-88
2021/11/14 05:05:47;;;;;;;19.38;6.13;;;10.90;99.90;;;;;;5061599;28;20049;-88
2021/11/14 05:08:15;;;;;;;20.98;7.22;;;11.00;99.90;;;;;;5060498;28;20055;-88
2021/11/14 05:10:46;;;;;;;16.65;7.40;;;11.00;99.90;;;;;;5028956;28;20502;-87
2021/11/14 05:13:14;;;;;;;19.85;7.20;;;10.90;99.90;;;;;;5038763;28;20524;-87
2021/11/14 05:15:42;;;;;;;19.13;7.93;;;10.90;99.90;;;;;;5040432;28;20053;-86
2021/11/14 05:18:10;;;;;;;20.67;8.55;;;10.90;99.90;;;;;;5053050;28;20491;-88
2021/11/14 05:20:39;;;;;;;18.38;7.47;;;10.90;99.90;;;;;;5043961;28;20049;-88
2021/11/14 05:23:08;;;;;;;14.88;7.25;;;10.90;99.90;;;;;;5042279;28;20064;-88
2021/11/14 05:25:36;;;;;;;17.65;6.82;;;10.90;99.90;;;;;;5059102;28;20044;-88
2021/11/14 05:28:04;;;;;;;24.50;8.15;;;10.90;99.90;;;;;;5074162;28;20052;-88
2021/11/14 05:30:31;;;;;;;21.25;8.63;;;10.90;99.90;;;;;;5044921;28;20056;-89
2021/11/14 05:32:59;;;;;;;21.92;6.97;;;10.90;99.90;;;;;;5044015;28;20044;-87
2021/11/14 05:35:27;;;;;;;17.00;7.18;;;10.90;99.90;;;;;;5058360;28;20052;-87
2021/11/14 05:37:55;;;;;;;28.45;8.63;;;10.90;99.90;;;;;;5041870;28;20044;-85
2021/11/14 05:40:25;;;;;;;17.98;7.57;;;11.00;99.90;;;;;;5073900;28;20045;-86
2021/11/14 05:42:52;;;;;;;20.55;7.03;;;11.00;99.90;;;;;;5042495;28;20052;-89
2021/11/14 05:45:21;;;;;;;18.83;7.28;;;11.00;99.90;;;;;;5040664;28;20057;-87
2021/11/14 05:47:50;;;;;;;19.95;6.78;;;11.00;99.90;;;;;;5050930;28;20040;-87
2021/11/14 05:50:18;;;;;;;17.90;7.07;;;11.00;99.90;;;;;;5055323;28;20060;-87
2021/11/14 05:52:46;;;;;;;14.38;6.85;;;11.00;99.90;;;;;;5040908;28;20048;-88
2021/11/14 05:55:14;;;;;;;16.77;8.63;;;11.00;99.90;;;;;;5034791;28;20048;-87
2021/11/14 05:58:19;;;;;;;25.13;8.32;;;11.00;99.90;;;;;;5055162;28;20056;-89
2021/11/14 06:03:32;;;;;;;18.67;8.32;;;11.10;99.90;;;;;;5051174;28;20052;-87
2021/11/14 06:06:00;;;;;;;19.73;8.38;;;11.10;99.90;;;;;;5054169;28;20573;-84
2021/11/14 06:08:28;;;;;;;24.42;8.90;;;11.10;99.90;;;;;;5051521;28;20055;-86
2021/11/14 06:10:57;;;;;;;18.27;8.25;;;11.10;99.90;;;;;;5051064;28;20056;-84
2021/11/14 06:13:27;;;;;;;24.63;8.95;;;11.10;99.90;;;;;;5078531;28;20043;-85
2021/11/14 06:15:55;;;;;;;23.10;10.48;;;11.10;99.90;;;;;;5047972;28;20062;-85
2021/11/14 06:18:23;;;;;;;15.57;9.43;;;11.10;99.90;;;;;;5061027;28;20044;-86
2021/11/14 06:20:51;;;;;;;20.70;8.98;;;11.10;99.90;;;;;;5065485;28;20053;-85
2021/11/14 06:23:19;;;;;;;25.63;11.25;;;11.10;99.90;;;;;;5023301;28;20057;-89
2021/11/14 06:25:47;;;;;;;46.13;11.32;;;11.10;99.90;;;;;;5047380;28;20140;-86
2021/11/14 06:28:15;;;;;;;22.63;11.20;;;11.10;99.90;;;;;;5026506;28;20052;-86
2021/11/14 06:30:42;;;;;;;25.58;10.30;;;11.20;99.90;;;;;;5039307;28;20063;-87
2021/11/14 06:33:10;;;;;;;27.98;11.18;;;11.10;99.90;;;;;;5038413;28;20091;-87
2021/11/14 06:35:38;;;;;;;26.73;10.88;;;11.20;99.90;;;;;;5054539;28;20037;-88
2021/11/14 06:38:06;;;;;;;21.80;10.38;;;11.20;99.90;;;;;;5064923;28;20036;-88
2021/11/14 06:40:35;;;;;;;21.73;10.07;;;11.20;99.90;;;;;;5054731;28;20056;-88
2021/11/14 06:43:03;;;;;;;26.25;10.75;;;11.20;99.90;;;;;;5049227;28;20064;-86
2021/11/14 06:45:31;;;;;;;22.45;11.80;;;11.20;99.90;;;;;;5037641;28;20060;-85
2021/11/14 06:47:58;;;;;;;28.15;11.50;;;11.20;99.90;;;;;;5044163;28;20056;-86
2021/11/14 06:50:26;;;;;;;30.70;11.40;;;11.20;99.90;;;;;;5051121;28;20052;-88
2021/11/14 06:52:57;;;;;;;23.05;10.00;;;11.20;99.90;;;;;;5032504;28;20037;-86
2021/11/14 06:55:25;;;;;;;24.80;10.77;;;11.20;99.90;;;;;;5032285;28;20052;-86
2021/11/14 06:57:53;;;;;;;27.45;10.48;;;11.20;99.90;;;;;;5032724;28;20049;-88
2021/11/14 07:00:23;;;;;;;36.78;11.85;;;11.30;99.90;;;;;;5019114;28;20056;-86
2021/11/14 07:02:51;;;;;;;28.02;12.05;;;11.20;99.90;;;;;;5051112;28;20044;-86
2021/11/14 07:05:27;;;;;;;26.65;10.32;;;11.20;99.90;;;;;;5033395;28;20064;-86
2021/11/14 07:07:54;;;;;;;32.03;14.07;;;11.20;99.90;;;;;;5069027;28;20052;-86
2021/11/14 07:10:24;;;;;;;23.08;10.05;;;11.30;99.90;;;;;;5038489;28;20045;-87
2021/11/14 07:12:53;;;;;;;30.65;10.75;;;11.30;99.90;;;;;;5026417;28;20053;-85
2021/11/14 07:15:21;;;;;;;29.65;11.50;;;11.30;99.90;;;;;;5034784;28;20048;-85
2021/11/14 07:17:49;;;;;;;24.40;10.95;;;11.30;99.90;;;;;;5024228;28;20052;-86
2021/11/14 07:20:18;;;;;;;35.58;10.60;;;11.30;99.90;;;;;;5037186;28;20400;-86
2021/11/14 07:22:47;;;;;;;19.42;9.30;;;11.30;99.90;;;;;;5031126;28;20048;-86
2021/11/14 07:25:17;;;;;;;29.45;9.52;;;11.30;99.90;;;;;;5054124;28;20056;-87
2021/11/14 07:27:49;;;;;;;28.75;10.98;;;11.30;99.90;;;;;;5070023;28;20045;-86
2021/11/14 07:30:21;;;;;;;19.88;7.03;;;11.30;99.90;;;;;;5043752;28;20064;-87
2021/11/14 07:32:52;;;;;;;19.02;9.20;;;11.30;99.90;;;;;;5049670;28;20462;-86
2021/11/14 07:35:23;;;;;;;21.48;8.18;;;11.40;99.90;;;;;;5072547;28;20044;-86
2021/11/14 07:37:52;;;;;;;25.80;10.80;;;11.40;99.90;;;;;;5049705;28;20057;-85
2021/11/14 07:40:22;;;;;;;19.52;8.15;;;11.40;99.90;;;;;;5031115;28;20056;-85
2021/11/14 07:42:52;;;;;;;21.92;7.82;;;11.40;99.90;;;;;;5016787;28;20048;-85
2021/11/14 07:45:52;;;;;;;17.35;7.68;;;11.40;99.90;;;;;;5031170;28;20040;-85
2021/11/14 07:48:21;;;;;;;20.58;7.97;;;11.40;99.90;;;;;;4992750;28;20052;-85
2021/11/14 07:50:57;;;;;;;24.52;6.90;;;11.60;99.90;;;;;;5072567;28;20056;-85
2021/11/14 07:53:31;;;;;;;28.42;8.45;;;11.40;99.90;;;;;;5050438;28;20063;-87
2021/11/14 07:55:59;;;;;;;20.02;9.00;;;11.40;99.90;;;;;;5019658;28;20205;-86
2021/11/14 07:58:27;;;;;;;19.77;8.85;;;11.40;99.90;;;;;;5031661;28;20072;-84
2021/11/14 08:01:02;;;;;;;21.38;8.75;;;11.50;99.90;;;;;;5036985;28;20083;-85
2021/11/14 08:03:34;;;;;;;17.27;8.30;;;11.50;99.90;;;;;;5031311;28;20061;-86
2021/11/14 08:06:03;;;;;;;16.35;8.02;;;11.50;99.90;;;;;;5048717;28;20041;-85
2021/11/14 08:08:31;;;;;;;18.58;8.48;;;11.50;99.90;;;;;;5010915;28;20052;-85
2021/11/14 08:10:58;;;;;;;18.90;7.57;;;11.50;99.90;;;;;;5048065;28;20056;-85
2021/11/14 08:13:26;;;;;;;19.90;7.97;;;11.50;99.90;;;;;;5047194;28;20045;-85
2021/11/14 08:15:54;;;;;;;23.50;8.77;;;11.60;99.90;;;;;;5061544;28;20056;-86
2021/11/14 08:18:22;;;;;;;20.65;7.85;;;11.60;99.90;;;;;;5014839;28;20060;-86
2021/11/14 08:20:51;;;;;;;26.15;9.27;;;11.60;99.90;;;;;;5027602;28;20087;-85
2021/11/14 08:23:20;;;;;;;21.40;8.57;;;11.60;99.90;;;;;;5055653;28;20075;-86
2021/11/14 08:25:50;;;;;;;18.75;8.98;;;11.60;99.90;;;;;;5031090;28;20063;-86
2021/11/14 08:28:19;;;;;;;20.85;10.57;;;11.70;99.90;;;;;;5051966;28;20087;-87
2021/11/14 08:30:46;;;;;;;24.90;10.18;;;11.70;99.90;;;;;;5046425;28;20052;-87
2021/11/14 08:33:34;;;;;;;26.02;10.30;;;11.70;99.90;;;;;;5041525;28;20060;-85
2021/11/14 08:36:02;;;;;;;21.38;9.68;;;11.70;99.90;;;;;;5047544;28;20041;-86
2021/11/14 08:38:30;;;;;;;24.17;11.27;;;11.70;99.90;;;;;;5052685;28;20048;-86
2021/11/14 08:40:59;;;;;;;25.58;10.43;;;11.70;99.90;;;;;;5021381;28;20056;-86
2021/11/14 08:43:27;;;;;;;26.45;10.93;;;11.80;99.90;;;;;;5037454;28;20052;-86
2021/11/14 08:45:56;;;;;;;26.77;10.60;;;11.80;99.90;;;;;;5033771;28;20049;-87
2021/11/14 08:48:25;;;;;;;28.13;11.80;;;11.80;99.90;;;;;;5019214;28;20438;-86
2021/11/14 08:50:56;;;;;;;30.30;12.55;;;11.80;99.90;;;;;;5031467;28;20060;-87
2021/11/14 08:53:23;;;;;;;25.85;10.00;;;11.90;99.90;;;;;;5040470;28;20060;-85
2021/11/14 08:55:56;;;;;;;31.25;11.05;;;11.90;99.90;;;;;;5008037;28;20065;-87
2021/11/14 08:58:33;;;;;;;30.90;11.90;;;11.90;99.90;;;;;;5035769;28;20056;-86
2021/11/14 09:01:04;;;;;;;31.02;14.00;;;12.00;99.90;;;;;;5030853;28;20040;-84
2021/11/14 09:03:33;;;;;;;27.00;12.68;;;12.00;99.90;;;;;;5040098;28;20052;-87
2021/11/14 09:06:00;;;;;;;31.23;12.70;;;12.00;99.90;;;;;;5034311;28;20323;-86
2021/11/14 09:08:28;;;;;;;32.22;12.95;;;12.10;99.90;;;;;;5024440;28;20047;-87
2021/11/14 09:10:58;;;;;;;30.48;13.88;;;12.10;99.90;;;;;;5047233;28;20076;-87
2021/11/14 09:13:26;;;;;;;34.20;13.50;;;12.10;99.90;;;;;;4678072;28;10000337;-85
2021/11/14 09:15:58;;;;;;;42.80;14.00;;;12.20;99.90;;;;;;5062757;28;20049;-84
2021/11/14 09:18:27;;;;;;;30.02;13.52;;;12.20;99.90;;;;;;5049029;28;20049;-87
2021/11/14 09:20:56;;;;;;;28.67;13.75;;;12.20;99.90;;;;;;5032721;28;20044;-86
2021/11/14 09:23:27;;;;;;;27.23;14.23;;;12.30;99.90;;;;;;5044542;28;20281;-85
2021/11/14 09:25:56;;;;;;;30.80;12.90;;;12.40;99.90;;;;;;5020495;28;20080;-86
2021/11/14 09:28:24;;;;;;;39.13;15.85;;;12.40;99.90;;;;;;5048837;28;20067;-86
2021/11/14 09:30:53;;;;;;;29.20;13.40;;;12.40;99.90;;;;;;5066482;28;20488;-86
2021/11/14 09:33:24;;;;;;;40.08;16.88;;;12.40;99.90;;;;;;5070231;28;20044;-85
2021/11/14 09:35:53;;;;;;;40.38;15.32;;;12.50;99.90;;;;;;5070368;28;20056;-85
2021/11/14 09:38:21;;;;;;;37.67;14.07;;;12.50;99.90;;;;;;5053529;28;20056;-86
2021/11/14 09:40:49;;;;;;;36.38;12.02;;;12.60;99.90;;;;;;5034013;28;20050;-84
2021/11/14 09:43:21;;;;;;;37.17;14.43;;;12.60;99.90;;;;;;5047885;28;20523;-85
2021/11/14 09:45:52;;;;;;;24.90;10.90;;;12.70;99.90;;;;;;5062263;28;20045;-85
2021/11/14 09:48:22;;;;;;;26.23;10.93;;;12.70;99.90;;;;;;5031336;28;20048;-87
2021/11/14 09:50:58;;;;;;;30.10;11.70;;;12.80;99.90;;;;;;5052751;28;20057;-86
2021/11/14 09:53:32;;;;;;;26.40;9.32;;;12.80;99.90;;;;;;5037719;28;20562;-86
2021/11/14 09:56:01;;;;;;;25.20;9.82;;;12.80;99.90;;;;;;5075969;28;21027;-87
2021/11/14 09:58:30;;;;;;;21.60;9.75;;;12.80;99.90;;;;;;5031977;28;20045;-86
2021/11/14 10:00:59;;;;;;;35.05;12.32;;;12.90;99.90;;;;;;5027562;28;20497;-87
2021/11/14 10:03:32;;;;;;;24.52;10.35;;;12.90;99.90;;;;;;5025825;28;20312;-84
2021/11/14 10:06:01;;;;;;;27.52;10.07;;;12.90;99.90;;;;;;5033141;28;20048;-84
2021/11/14 10:08:42;;;;;;;25.48;11.25;;;12.90;99.90;;;;;;5034626;28;20051;-84
2021/11/14 10:11:10;;;;;;;22.15;9.13;;;13.00;99.90;;;;;;5019848;28;20055;-86
2021/11/14 10:13:39;;;;;;;24.98;10.27;;;13.00;99.90;;;;;;5068853;28;20226;-85
2021/11/14 10:16:16;;;;;;;24.08;9.48;;;13.10;99.90;;;;;;5013479;28;20052;-86
2021/11/14 10:19:03;;;;;;;25.73;9.25;;;13.10;99.90;;;;;;5055025;28;20056;-86
2021/11/14 10:21:33;;;;;;;19.02;7.95;;;13.20;99.90;;;;;;5065207;28;20047;-87
2021/11/14 10:24:07;;;;;;;25.60;8.70;;;13.30;99.90;;;;;;5062557;28;20376;-86
2021/11/14 10:26:36;;;;;;;28.95;9.85;;;13.30;99.90;;;;;;5038284;28;20040;-86
2021/11/14 10:29:10;;;;;;;22.77;9.77;;;13.40;99.90;;;;;;5018207;28;20049;-84
2021/11/14 10:31:39;;;;;;;21.40;8.50;;;13.40;99.90;;;;;;5050420;28;20463;-86
2021/11/14 10:34:08;;;;;;;21.83;8.18;;;13.50;99.90;;;;;;5069698;28;20044;-86
2021/11/14 10:36:36;;;;;;;17.25;7.68;;;13.50;99.90;;;;;;5033044;28;20539;-86
2021/11/14 10:39:10;;;;;;;16.33;8.80;;;13.60;99.90;;;;;;5048576;28;20052;-85
2021/11/14 10:41:43;;;;;;;17.42;7.88;;;13.60;99.90;;;;;;5032619;28;20427;-85
2021/11/14 10:44:17;;;;;;;26.70;9.90;;;13.70;99.90;;;;;;5029443;28;20520;-87
2021/11/14 10:46:45;;;;;;;15.32;7.50;;;13.70;99.90;;;;;;5014506;28;20036;-86
2021/11/14 10:49:13;;;;;;;23.15;8.50;;;13.70;99.90;;;;;;5062518;28;20056;-86
2021/11/14 10:51:41;;;;;;;27.40;8.18;;;13.70;99.90;;;;;;5041618;28;20040;-86
2021/11/14 10:54:10;;;;;;;18.05;7.75;;;13.80;99.90;;;;;;5014716;28;20048;-86
2021/11/14 10:56:39;;;;;;;18.20;6.63;;;13.80;99.90;;;;;;5041925;28;20578;-86
2021/11/14 10:59:08;;;;;;;22.38;7.88;;;13.90;99.90;;;;;;5008474;28;20393;-87
2021/11/14 11:01:36;;;;;;;21.65;7.68;;;13.90;99.90;;;;;;5011077;28;20049;-86
2021/11/14 11:04:10;;;;;;;20.73;8.65;;;13.90;99.90;;;;;;5014504;28;20061;-86
2021/11/14 11:06:38;;;;;;;20.65;9.07;;;13.70;99.90;;;;;;5036918;28;20044;-86
2021/11/14 11:09:07;;;;;;;22.92;7.50;;;13.90;99.90;;;;;;5054797;28;20048;-88
2021/11/14 11:11:42;;;;;;;23.30;7.85;;;13.90;99.90;;;;;;5004919;28;20064;-86
2021/11/14 11:14:25;;;;;;;21.00;7.88;;;13.90;99.90;;;;;;5048635;28;20376;-86
2021/11/14 11:17:16;;;;;;;19.77;7.47;;;13.80;99.90;;;;;;5037023;28;20040;-85
2021/11/14 11:19:44;;;;;;;19.13;5.78;;;13.90;99.90;;;;;;5051847;28;20044;-85
2021/11/14 11:22:13;;;;;;;15.00;6.53;;;13.90;99.90;;;;;;5030123;28;20044;-85
2021/11/14 11:24:50;;;;;;;19.25;6.25;;;14.00;99.90;;;;;;5045472;28;20049;-86
2021/11/14 11:27:20;;;;;;;19.75;7.35;;;14.00;99.90;;;;;;5032667;28;20385;-86
2021/11/14 11:29:50;;;;;;;19.88;7.78;;;14.10;99.90;;;;;;5012197;28;20057;-86
2021/11/14 11:32:22;;;;;;;20.05;5.88;;;14.20;99.90;;;;;;5028817;28;20045;-86
2021/11/14 11:34:49;;;;;;;20.42;7.50;;;14.20;99.90;;;;;;4995333;28;20076;-87
2021/11/14 11:37:17;;;;;;;11.82;5.57;;;14.20;99.90;;;;;;4992386;28;20045;-85
2021/11/14 11:39:49;;;;;;;21.67;6.13;;;14.20;99.90;;;;;;5015146;28;20053;-87
2021/11/14 11:42:17;;;;;;;15.32;6.13;;;14.30;99.90;;;;;;5027694;28;20476;-86
2021/11/14 11:45:37;;;;;;;13.93;5.70;;;14.30;99.90;;;;;;5018731;28;20056;-86
2021/11/14 11:48:13;;;;;;;11.65;4.68;;;14.40;99.90;;;;;;5047483;28;20049;-85
2021/11/14 11:50:41;;;;;;;12.65;4.60;;;14.40;99.90;;;;;;5031194;28;20056;-87
2021/11/14 11:53:24;;;;;;;13.07;4.43;;;14.50;99.90;;;;;;5009749;28;20420;-85
2021/11/14 11:56:14;;;;;;;15.63;5.13;;;14.50;99.90;;;;;;5024649;28;20528;-86
2021/11/14 11:58:49;;;;;;;11.70;3.95;;;14.50;99.90;;;;;;5041724;28;20060;-85
2021/11/14 12:01:34;;;;;;;14.50;4.70;;;14.50;99.90;;;;;;5044621;28;20051;-85
2021/11/14 12:04:10;;;;;;;11.77;4.38;;;14.60;99.90;;;;;;5028012;28;20511;-84
2021/11/14 12:06:43;;;;;;;22.60;5.75;;;14.60;99.90;;;;;;5045134;28;20051;-83
2021/11/14 12:09:13;;;;;;;13.57;4.32;;;14.70;99.90;;;;;;5044718;28;20041;-84
2021/11/14 12:11:48;;;;;;;19.60;5.60;;;14.70;99.90;;;;;;5044542;28;20071;-85
2021/11/14 12:14:30;;;;;;;18.25;5.60;;;14.80;99.90;;;;;;5024036;28;20049;-85
2021/11/14 12:17:32;;;;;;;21.30;6.10;;;14.80;99.90;;;;;;5064571;28;20059;-84
2021/11/14 12:20:08;;;;;;;15.65;4.53;;;14.80;99.90;;;;;;5039007;28;20044;-87
2021/11/14 12:22:44;;;;;;;10.60;4.15;;;14.80;99.90;;;;;;5057429;28;20055;-86
2021/11/14 12:25:29;;;;;;;9.02;3.47;;;14.80;99.90;;;;;;5035938;28;20059;-84
2021/11/14 12:28:04;;;;;;;9.93;3.75;;;14.80;99.90;;;;;;5066627;28;20407;-86
2021/11/14 12:30:35;;;;;;;7.38;3.15;;;14.80;99.90;;;;;;5017274;28;20059;-83
2021/11/14 12:33:04;;;;;;;16.63;3.50;;;14.80;99.90;;;;;;5046830;28;20400;-84
2021/11/14 12:35:45;;;;;;;15.98;3.80;;;14.80;99.90;;;;;;5042172;28;20301;-85
2021/11/14 12:38:21;;;;;;;;;;;14.80;99.90;;;;;;5047831;28;20052;-84
2021/11/14 12:41:02;;;;;;;11.05;3.70;;;14.80;99.90;;;;;;5029902;28;20360;-86
2021/11/14 12:43:36;;;;;;;10.98;3.55;;;14.80;99.90;;;;;;5061460;28;20049;-85
2021/11/14 12:46:14;;;;;;;10.40;3.38;;;14.70;99.90;;;;;;5061407;28;20045;-86
2021/11/14 12:48:44;;;;;;;14.38;3.47;;;14.70;99.90;;;;;;5043907;28;20055;-86
2021/11/14 12:51:25;;;;;;;6.18;2.40;;;14.60;99.90;;;;;;5044586;28;20045;-85
2021/11/14 12:53:53;;;;;;;10.57;3.13;;;14.50;99.90;;;;;;5062803;28;20052;-84
2021/11/14 12:56:32;;;;;;;8.73;2.70;;;14.50;99.90;;;;;;5063469;28;20036;-85
2021/11/14 12:59:14;;;;;;;5.00;2.58;;;14.50;99.90;;;;;;5044143;28;20048;-85